createdAt,value
2022-10-28T00:02:22.844Z,101831.34
2022-10-28T00:05:24.651Z,101832.19
2022-10-28T00:08:26.442Z,101837.22
2022-10-28T00:11:32.279Z,101832.66
2022-10-28T00:14:34.074Z,101838.06
2022-10-28T00:17:35.876Z,101825.56
2022-10-28T00:20:37.670Z,101827.03
2022-10-28T00:23:39.720Z,101832.19
2022-10-28T00:26:45.969Z,101834.53
2022-10-28T00:29:47.798Z,101825.19
2022-10-28T00:32:49.845Z,101832.28
2022-10-28T00:35:51.701Z,101836.13
2022-10-28T00:38:53.889Z,101837.28
2022-10-28T00:41:57.969Z,101827.53
2022-10-28T00:45:00.485Z,101829.72
2022-10-28T00:48:02.848Z,101835.38
2022-10-28T00:51:05.357Z,101819.50
2022-10-28T00:54:07.128Z,101822.31
2022-10-28T00:57:10.277Z,101819.38
2022-10-28T01:00:12.480Z,101824.81
2022-10-28T01:03:15.161Z,101832.44
2022-10-28T01:06:16.985Z,101823.75
2022-10-28T01:09:18.927Z,101813.37
2022-10-28T01:12:29.491Z,101825.34
2022-10-28T01:15:38.309Z,101823.72
2022-10-28T01:18:43.005Z,101823.13
2022-10-28T01:22:03.240Z,101811.78
2022-10-28T01:25:14.179Z,101815.72
2022-10-28T01:28:18.969Z,101818.47
2022-10-28T01:31:20.730Z,101802.69
2022-10-28T01:34:42.308Z,101813.19
2022-10-28T01:37:57.128Z,101798.63
2022-10-28T01:41:11.214Z,101804.81
2022-10-28T01:44:25.118Z,101812.09
2022-10-28T01:47:28.840Z,101810.50
2022-10-28T01:50:38.107Z,101805.28
2022-10-28T01:53:41.781Z,101812.34
2022-10-28T01:56:43.910Z,101804.09
2022-10-28T01:59:45.812Z,101806.50
2022-10-28T02:02:47.683Z,101799.84
2022-10-28T02:05:52.775Z,101801.12
2022-10-28T02:09:13.426Z,101801.47
2022-10-28T02:12:25.786Z,101797.41
2022-10-28T02:15:53.993Z,101792.47
2022-10-28T02:18:55.760Z,101812.84
2022-10-28T02:22:15.739Z,101797.75
2022-10-28T02:25:17.579Z,101804.59
2022-10-28T02:28:21.883Z,101797.34
2022-10-28T02:31:28.532Z,101801.81
2022-10-28T02:34:39.935Z,101800.44
2022-10-28T02:37:42.334Z,101795.91
2022-10-28T02:40:44.571Z,101785.22
2022-10-28T02:43:46.417Z,101796.00
2022-10-28T02:46:48.711Z,101802.47
2022-10-28T02:49:52.350Z,101800.28
2022-10-28T02:52:55.544Z,101807.28
2022-10-28T02:55:57.523Z,101795.47
2022-10-28T02:58:59.306Z,101794.22
2022-10-28T03:02:01.407Z,101789.87
2022-10-28T03:05:04.091Z,101800.00
2022-10-28T03:08:05.866Z,101797.44
2022-10-28T03:11:07.686Z,101795.28
2022-10-28T03:14:11.893Z,101798.94
2022-10-28T03:17:16.429Z,101778.25
2022-10-28T03:20:18.233Z,101787.88
2022-10-28T03:23:20.005Z,101796.47
2022-10-28T03:26:21.836Z,101795.59
2022-10-28T03:29:23.615Z,101794.94
2022-10-28T03:32:25.421Z,101796.94
2022-10-28T03:35:27.213Z,101786.69
2022-10-28T03:38:29.085Z,101793.25
2022-10-28T03:41:30.962Z,101788.44
2022-10-28T03:44:32.763Z,101787.62
2022-10-28T03:47:34.818Z,101792.78
2022-10-28T03:50:36.595Z,101792.59
2022-10-28T03:53:38.425Z,101786.69
2022-10-28T03:56:40.652Z,101788.84
2022-10-28T03:59:42.488Z,101782.31
2022-10-28T04:02:49.350Z,101785.63
2022-10-28T04:05:51.289Z,101786.37
2022-10-28T04:08:53.175Z,101788.28
2022-10-28T04:11:55.049Z,101794.28
2022-10-28T04:14:56.950Z,101794.53
2022-10-28T04:17:58.749Z,101782.81
2022-10-28T04:21:00.525Z,101784.59
2022-10-28T04:24:02.333Z,101781.66
2022-10-28T04:27:04.145Z,101774.84
2022-10-28T04:30:06.289Z,101776.34
2022-10-28T04:33:08.880Z,101778.50
2022-10-28T04:36:10.674Z,101768.31
2022-10-28T04:39:12.481Z,101765.03
2022-10-28T04:42:14.329Z,101760.72
2022-10-28T04:45:16.143Z,101760.19
2022-10-28T04:48:17.963Z,101761.91
2022-10-28T04:51:19.746Z,101765.00
2022-10-28T04:54:21.600Z,101769.63
2022-10-28T04:57:23.381Z,101764.41
2022-10-28T05:00:25.569Z,101757.78
2022-10-28T05:03:27.347Z,101744.19
2022-10-28T05:06:29.162Z,101749.22
2022-10-28T05:09:30.969Z,101754.47
2022-10-28T05:12:32.768Z,101755.63
2022-10-28T05:15:34.556Z,101755.69
2022-10-28T05:18:36.399Z,101755.37
2022-10-28T05:21:38.255Z,101760.19
2022-10-28T05:24:40.299Z,101754.12
2022-10-28T05:27:42.160Z,101758.59
2022-10-28T05:30:44.082Z,101761.75
2022-10-28T05:33:45.937Z,101753.19
2022-10-28T05:36:47.871Z,101762.13
2022-10-28T05:39:49.689Z,101767.50
2022-10-28T05:42:51.776Z,101772.63
2022-10-28T05:45:57.042Z,101771.53
2022-10-28T05:48:58.882Z,101782.09
2022-10-28T05:52:00.677Z,101775.38
2022-10-28T05:55:02.480Z,101777.53
2022-10-28T05:58:04.372Z,101784.97
2022-10-28T06:01:06.812Z,101794.25
2022-10-28T06:04:08.841Z,101789.31
2022-10-28T06:07:10.797Z,101792.13
2022-10-28T06:10:12.647Z,101795.06
2022-10-28T06:13:12.940Z,101804.56
2022-10-28T06:16:14.777Z,101796.56
2022-10-28T06:19:16.586Z,101798.22
2022-10-28T06:22:18.408Z,101797.69
2022-10-28T06:25:20.661Z,101791.56
2022-10-28T06:28:22.741Z,101791.84
2022-10-28T06:31:24.625Z,101789.75
2022-10-28T06:34:26.566Z,101790.69
2022-10-28T06:37:28.425Z,101809.72
2022-10-28T06:40:30.318Z,101810.31
2022-10-28T06:43:32.214Z,101809.53
2022-10-28T06:46:35.632Z,101804.50
2022-10-28T06:49:37.541Z,101806.94
2022-10-28T06:52:39.494Z,101814.34
2022-10-28T06:55:41.380Z,101812.28
2022-10-28T06:58:43.431Z,101801.62
2022-10-28T07:01:45.549Z,101798.56
2022-10-28T07:04:47.514Z,101813.19
2022-10-28T07:07:49.994Z,101823.91
2022-10-28T07:10:58.558Z,101827.97
2022-10-28T07:14:00.361Z,101829.22
2022-10-28T07:17:02.630Z,101820.63
2022-10-28T07:20:04.616Z,101821.88
2022-10-28T07:23:06.451Z,101820.00
2022-10-28T07:26:08.397Z,101818.34
2022-10-28T07:29:10.384Z,101821.62
2022-10-28T07:32:12.192Z,101811.94
2022-10-28T07:35:14.055Z,101821.47
2022-10-28T07:38:16.026Z,101831.09
2022-10-28T07:41:18.132Z,101816.37
2022-10-28T07:44:19.990Z,101824.16
2022-10-28T07:47:22.354Z,101835.72
2022-10-28T07:50:24.273Z,101829.66
2022-10-28T07:53:28.640Z,101830.47
2022-10-28T07:56:30.858Z,101834.22
2022-10-28T07:59:32.902Z,101829.69
2022-10-28T08:02:34.744Z,101835.28
2022-10-28T08:05:36.665Z,101831.84
2022-10-28T08:08:38.710Z,101828.06
2022-10-28T08:11:40.765Z,101824.25
2022-10-28T08:14:42.673Z,101819.75
2022-10-28T08:17:44.521Z,101811.34
2022-10-28T08:20:46.381Z,101811.91
2022-10-28T08:23:48.335Z,101811.56
2022-10-28T08:26:50.221Z,101807.03
2022-10-28T08:29:54.071Z,101810.00
2022-10-28T08:32:56.246Z,101799.13
2022-10-28T08:35:58.366Z,101804.34
2022-10-28T08:39:01.679Z,101814.66
2022-10-28T08:42:19.830Z,101819.31
2022-10-28T08:45:30.901Z,101830.34
2022-10-28T08:48:35.929Z,101822.59
2022-10-28T08:51:56.309Z,101831.69
2022-10-28T08:55:17.566Z,101838.81
2022-10-28T08:58:24.850Z,101831.19
2022-10-28T09:01:39.299Z,101823.34
2022-10-28T09:04:44.935Z,101827.25
2022-10-28T09:07:46.745Z,101833.50
2022-10-28T09:10:53.375Z,101843.94
2022-10-28T09:14:01.305Z,101844.25
2022-10-28T09:17:03.227Z,101844.16
2022-10-28T09:20:26.219Z,101837.31
2022-10-28T09:23:32.500Z,101843.84
2022-10-28T09:26:37.594Z,101830.22
2022-10-28T09:29:45.197Z,101831.81
2022-10-28T09:33:07.253Z,101839.97
2022-10-28T09:36:11.586Z,101842.44
2022-10-28T09:39:14.992Z,101841.91
2022-10-28T09:42:22.433Z,101842.06
2022-10-28T09:45:25.811Z,101831.00
2022-10-28T09:48:28.720Z,101828.31
2022-10-28T09:51:33.673Z,101827.78
2022-10-28T09:54:40.145Z,101836.06
2022-10-28T09:57:41.994Z,101840.13
2022-10-28T10:00:43.954Z,101843.06
2022-10-28T10:03:49.116Z,101834.63
2022-10-28T10:06:52.478Z,101829.56
2022-10-28T10:09:55.902Z,101831.13
2022-10-28T10:12:59.489Z,101831.06
2022-10-28T10:16:13.208Z,101825.47
2022-10-28T10:19:15.180Z,101832.19
2022-10-28T10:22:36.283Z,101837.31
2022-10-28T10:25:38.141Z,101834.53
2022-10-28T10:28:44.057Z,101830.28
2022-10-28T10:31:46.167Z,101839.53
2022-10-28T10:35:06.992Z,101833.41
2022-10-28T10:38:13.910Z,101827.53
2022-10-28T10:41:34.403Z,101828.25
2022-10-28T10:44:36.323Z,101828.97
2022-10-28T10:47:38.252Z,101826.91
2022-10-28T10:50:40.591Z,101823.81
2022-10-28T10:53:46.157Z,101829.28
2022-10-28T10:56:48.380Z,101814.62
2022-10-28T10:59:52.523Z,101814.56
2022-10-28T11:02:55.952Z,101806.47
2022-10-28T11:06:22.507Z,101809.91
2022-10-28T11:09:32.788Z,101815.78
2022-10-28T11:12:38.933Z,101825.25
2022-10-28T11:15:40.749Z,101810.84
2022-10-28T11:18:43.867Z,101810.03
2022-10-28T11:21:50.803Z,101814.94
2022-10-28T11:24:52.697Z,101810.09
2022-10-28T11:28:11.645Z,101818.59
2022-10-28T11:31:13.468Z,101802.66
2022-10-28T11:34:21.135Z,101805.09
2022-10-28T11:37:38.338Z,101806.69
2022-10-28T11:40:40.706Z,101809.34
2022-10-28T11:43:53.613Z,101801.47
2022-10-28T11:47:06.878Z,101789.16
2022-10-28T11:50:20.859Z,101780.03
2022-10-28T11:53:37.140Z,101782.72
2022-10-28T11:56:39.862Z,101774.78
2022-10-28T12:00:00.477Z,101779.63
2022-10-28T12:03:05.659Z,101783.50
2022-10-28T12:06:13.730Z,101776.75
2022-10-28T12:09:35.885Z,101775.00
2022-10-28T12:12:41.156Z,101772.03
2022-10-28T12:15:46.105Z,101768.63
2022-10-28T12:19:01.294Z,101763.00
2022-10-28T12:22:05.831Z,101764.97
2022-10-28T12:25:08.831Z,101758.69
2022-10-28T12:31:25.892Z,101759.84
2022-10-28T12:34:38.863Z,101758.44
2022-10-28T12:37:44.748Z,101755.78
2022-10-28T12:40:51.903Z,101745.91
2022-10-28T12:44:02.216Z,101746.50
2022-10-28T12:47:22.329Z,101740.47
2022-10-28T12:50:33.346Z,101738.53
2022-10-28T12:53:35.563Z,101748.31
2022-10-28T12:56:38.196Z,101746.81
2022-10-28T13:00:06.507Z,101739.88
2022-10-28T13:03:11.447Z,101741.31
2022-10-28T13:06:21.848Z,101737.88
2022-10-28T13:09:23.642Z,101718.78
2022-10-28T13:12:48.717Z,101725.56
2022-10-28T13:15:53.424Z,101714.75
2022-10-28T13:19:21.511Z,101722.47
2022-10-28T13:22:46.027Z,101724.87
2022-10-28T13:26:06.173Z,101726.84
2022-10-28T13:29:08.162Z,101733.03
2022-10-28T13:32:28.184Z,101732.34
2022-10-28T13:35:29.968Z,101720.63
2022-10-28T13:38:31.819Z,101714.81
2022-10-28T13:41:37.396Z,101726.19
2022-10-28T13:44:49.704Z,101735.63
2022-10-28T13:47:51.610Z,101731.16
2022-10-28T13:51:05.550Z,101721.66
2022-10-28T13:54:12.508Z,101716.13
2022-10-28T13:57:23.745Z,101718.47
2022-10-28T14:00:25.633Z,101716.50
2022-10-28T14:03:27.560Z,101727.69
2022-10-28T14:06:33.119Z,101728.78
2022-10-28T14:09:35.257Z,101733.38
2022-10-28T14:12:37.071Z,101724.84
2022-10-28T14:15:38.887Z,101736.66
2022-10-28T14:18:44.340Z,101729.97
2022-10-28T14:21:47.943Z,101731.81
2022-10-28T14:24:50.225Z,101734.41
2022-10-28T14:27:52.283Z,101725.59
2022-10-28T14:31:10.410Z,101735.41
2022-10-28T14:34:12.163Z,101728.44
2022-10-28T14:37:19.993Z,101724.22
2022-10-28T14:40:24.656Z,101726.00
2022-10-28T14:43:31.544Z,101721.50
2022-10-28T14:46:54.725Z,101722.25
2022-10-28T14:50:02.801Z,101721.19
2022-10-28T14:53:05.532Z,101721.81
2022-10-28T14:56:19.734Z,101730.28
2022-10-28T14:59:24.886Z,101720.44
2022-10-28T15:02:29.950Z,101709.09
2022-10-28T15:05:32.440Z,101721.72
2022-10-28T15:08:34.328Z,101715.72
2022-10-28T15:11:36.200Z,101708.09
2022-10-28T15:14:52.135Z,101719.50
2022-10-28T15:17:54.232Z,101706.25
2022-10-28T15:21:12.170Z,101705.31
2022-10-28T15:24:13.992Z,101701.69
2022-10-28T15:27:15.865Z,101707.13
2022-10-28T15:30:23.704Z,101681.22
2022-10-28T15:33:33.142Z,101687.75
2022-10-28T15:36:35.018Z,101686.00
2022-10-28T15:39:37.536Z,101683.81
2022-10-28T15:42:41.204Z,101683.16
2022-10-28T15:45:43.075Z,101685.72
2022-10-28T15:48:44.860Z,101682.13
2022-10-28T15:52:04.797Z,101686.03
2022-10-28T15:55:18.925Z,101685.44
2022-10-28T15:58:20.754Z,101690.47
2022-10-28T16:01:30.534Z,101686.12
2022-10-28T16:04:40.579Z,101692.03
2022-10-28T16:07:45.344Z,101688.06
2022-10-28T16:10:54.622Z,101701.81
2022-10-28T16:13:56.430Z,101699.28
2022-10-28T16:17:27.592Z,101689.44
2022-10-28T16:20:29.460Z,101685.75
2022-10-28T16:23:38.602Z,101680.75
2022-10-28T16:26:40.424Z,101685.28
2022-10-28T16:29:42.251Z,101686.03
2022-10-28T16:32:44.671Z,101676.38
2022-10-28T16:35:46.470Z,101686.03
2022-10-28T16:38:48.307Z,101690.06
2022-10-28T16:41:50.160Z,101688.69
2022-10-28T16:44:52.149Z,101691.47
2022-10-28T16:47:54.210Z,101687.75
2022-10-28T16:50:59.736Z,101697.87
2022-10-28T16:54:01.608Z,101690.53
2022-10-28T16:57:03.540Z,101693.81
2022-10-28T17:00:05.685Z,101701.31
2022-10-28T17:03:07.599Z,101700.53
2022-10-28T17:06:10.492Z,101699.06
2022-10-28T17:09:12.326Z,101695.56
2022-10-28T17:12:14.855Z,101700.16
2022-10-28T17:15:16.755Z,101712.19
2022-10-28T17:18:19.463Z,101696.12
2022-10-28T17:21:21.317Z,101697.06
2022-10-28T17:24:23.120Z,101695.91
2022-10-28T17:27:24.969Z,101699.19
2022-10-28T17:30:26.814Z,101699.84
2022-10-28T17:33:28.987Z,101699.88
2022-10-28T17:36:30.858Z,101697.59
2022-10-28T17:39:32.686Z,101697.28
2022-10-28T17:42:35.392Z,101696.38
2022-10-28T17:45:37.265Z,101702.97
2022-10-28T17:48:40.253Z,101704.94
2022-10-28T17:51:42.080Z,101697.56
2022-10-28T17:54:43.966Z,101687.75
2022-10-28T17:57:45.780Z,101696.53
2022-10-28T18:00:47.573Z,101705.94
2022-10-28T18:03:49.825Z,101706.53
2022-10-28T18:06:52.548Z,101704.13
2022-10-28T18:09:54.323Z,101698.16
2022-10-28T18:12:56.434Z,101692.62
2022-10-28T18:16:04.723Z,101695.53
2022-10-28T18:19:07.381Z,101696.66
2022-10-28T18:22:09.174Z,101694.22
2022-10-28T18:25:11.011Z,101683.97
2022-10-28T18:28:12.784Z,101686.12
2022-10-28T18:31:15.570Z,101690.69
2022-10-28T18:34:17.499Z,101681.84
2022-10-28T18:37:19.318Z,101678.25
2022-10-28T18:40:21.134Z,101684.00
2022-10-28T18:43:23.758Z,101670.84
2022-10-28T18:46:25.849Z,101669.97
2022-10-28T18:49:27.655Z,101673.53
2022-10-28T18:52:29.472Z,101669.56
2022-10-28T18:55:31.297Z,101672.34
2022-10-28T18:58:33.217Z,101665.44
2022-10-28T19:01:35.790Z,101671.31
2022-10-28T19:04:37.670Z,101673.59
2022-10-28T19:07:39.489Z,101673.25
2022-10-28T19:10:41.436Z,101669.22
2022-10-28T19:13:44.114Z,101663.03
2022-10-28T19:16:45.881Z,101667.72
2022-10-28T19:19:49.129Z,101667.94
2022-10-28T19:22:51.018Z,101672.81
2022-10-28T19:25:56.372Z,101666.88
2022-10-28T19:28:58.196Z,101670.59
2022-10-28T19:32:00.154Z,101666.38
2022-10-28T19:35:01.984Z,101668.00
2022-10-28T19:38:03.800Z,101670.69
2022-10-28T19:41:06.798Z,101669.72
2022-10-28T19:44:08.661Z,101673.91
2022-10-28T19:47:10.507Z,101668.50
2022-10-28T19:50:12.353Z,101681.25
2022-10-28T19:53:14.137Z,101685.41
2022-10-28T19:56:19.169Z,101679.94
2022-10-28T19:59:21.910Z,101689.69
2022-10-28T20:02:23.802Z,101688.19
2022-10-28T20:05:25.672Z,101677.72
2022-10-28T20:08:27.674Z,101682.09
2022-10-28T20:11:31.678Z,101690.44
2022-10-28T20:14:33.545Z,101697.22
2022-10-28T20:17:35.387Z,101697.56
2022-10-28T20:20:37.172Z,101697.63
2022-10-28T20:23:39.348Z,101689.69
2022-10-28T20:26:41.212Z,101686.63
2022-10-28T20:29:43.008Z,101696.69
2022-10-28T20:32:44.815Z,101694.84
2022-10-28T20:35:46.594Z,101695.97
2022-10-28T20:38:48.396Z,101698.97
2022-10-28T20:41:51.100Z,101694.78
2022-10-28T20:44:52.912Z,101697.13
2022-10-28T20:47:54.719Z,101688.69
2022-10-28T20:50:57.658Z,101691.37
2022-10-28T20:53:59.555Z,101693.75
2022-10-28T20:57:01.349Z,101686.28
2022-10-28T21:00:03.840Z,101694.47
2022-10-28T21:03:05.734Z,101698.91
2022-10-28T21:06:07.811Z,101694.09
2022-10-28T21:09:09.712Z,101698.03
2022-10-28T21:12:11.527Z,101684.75
2022-10-28T21:15:13.363Z,101688.53
2022-10-28T21:18:15.249Z,101693.16
2022-10-28T21:21:17.686Z,101684.63
2022-10-28T21:24:19.545Z,101683.19
2022-10-28T21:27:21.392Z,101679.00
2022-10-28T21:30:23.369Z,101678.00
2022-10-28T21:33:25.227Z,101683.66
2022-10-28T21:36:27.095Z,101682.72
2022-10-28T21:39:28.942Z,101679.81
2022-10-28T21:42:30.748Z,101677.41
2022-10-28T21:45:32.554Z,101684.50
2022-10-28T21:48:34.722Z,101687.37
2022-10-28T21:51:36.531Z,101676.28
2022-10-28T21:54:38.433Z,101670.28
2022-10-28T21:57:40.318Z,101668.66
2022-10-28T22:00:43.036Z,101672.41
2022-10-28T22:03:44.821Z,101670.53
2022-10-28T22:09:49.407Z,101663.34
2022-10-28T22:12:51.184Z,101667.66
2022-10-28T22:15:56.873Z,101649.00
2022-10-28T22:18:59.185Z,101661.34
2022-10-28T22:22:00.995Z,101654.72
2022-10-28T22:25:06.149Z,101651.81
2022-10-28T22:28:11.224Z,101656.66
2022-10-28T22:31:14.169Z,101655.41
2022-10-28T22:34:15.979Z,101650.87
2022-10-28T22:37:18.604Z,101648.97
2022-10-28T22:40:20.385Z,101646.19
2022-10-28T22:43:22.180Z,101643.84
2022-10-28T22:46:25.948Z,101650.13
2022-10-28T22:49:27.767Z,101654.78
2022-10-28T22:52:29.563Z,101636.25
2022-10-28T22:55:31.345Z,101632.91
2022-10-28T22:58:33.151Z,101634.94
2022-10-28T23:01:35.036Z,101635.19
2022-10-28T23:04:36.952Z,101632.91
2022-10-28T23:07:38.778Z,101629.00
2022-10-28T23:10:40.720Z,101629.19
2022-10-28T23:13:42.532Z,101619.56
2022-10-28T23:16:44.309Z,101621.28
2022-10-28T23:19:46.112Z,101619.41
2022-10-28T23:22:47.997Z,101624.06
2022-10-28T23:25:53.479Z,101619.56
2022-10-28T23:28:56.398Z,101628.38
2022-10-28T23:31:58.196Z,101628.91
2022-10-28T23:35:00.031Z,101628.59
2022-10-28T23:38:02.860Z,101626.72
2022-10-28T23:41:05.443Z,101628.53
2022-10-28T23:44:07.264Z,101614.19
2022-10-28T23:47:09.088Z,101618.03
2022-10-28T23:50:11.078Z,101619.03
2022-10-28T23:53:12.932Z,101625.63
2022-10-28T23:56:14.778Z,101621.00
2022-10-28T23:59:16.621Z,101625.91
